Time;durP1;ratioP1;P1;durP2;ratioP2;P2;SDS_P1;SDS_P2;PMS_P1;PMS_P2;Temp;Humidity;BMP_temperature;BMP_pressure;BME280_temperature;BME280_humidity;BME280_pressure;Samples;Min_cycle;Max_cycle;Signal;HPM_P1;HPM_P2
2021/08/14 00:00:31;;;;;;;11.50;6.43;;;;;;;16.02;71.75;100920.44;5034193;28;20056;-64
2021/08/14 00:02:59;;;;;;;11.57;6.40;;;;;;;15.96;71.96;100915.34;5053368;28;20053;-64
2021/08/14 00:05:26;;;;;;;12.27;7.32;;;;;;;15.91;72.48;100907.09;5053876;28;20376;-64
2021/08/14 00:07:54;;;;;;;10.65;6.50;;;;;;;15.90;72.75;100899.84;5052693;28;20048;-64
2021/08/14 00:10:21;;;;;;;11.43;6.45;;;;;;;15.90;72.72;100905.47;5053734;28;20057;-64
2021/08/14 00:12:48;;;;;;;10.48;6.53;;;;;;;15.89;72.24;100903.81;5053131;28;20053;-64
2021/08/14 00:15:17;;;;;;;10.23;5.90;;;;;;;15.85;72.48;100900.84;5038219;28;20053;-64
2021/08/14 00:17:44;;;;;;;10.47;6.80;;;;;;;15.80;72.49;100895.44;5033655;28;20483;-64
2021/08/14 00:20:13;;;;;;;9.13;5.95;;;;;;;15.77;72.83;100896.09;5033515;28;20060;-64
2021/08/14 00:22:41;;;;;;;9.05;6.65;;;;;;;15.72;72.85;100894.31;5033264;28;20053;-64
2021/08/14 00:25:09;;;;;;;9.52;6.45;;;;;;;15.69;73.02;100892.16;5034070;28;20455;-64
2021/08/14 00:27:36;;;;;;;11.27;6.63;;;;;;;15.67;72.86;100888.88;5032958;28;20057;-64
2021/08/14 00:30:05;;;;;;;11.65;6.75;;;;;;;15.64;73.01;100895.16;5033499;28;20053;-64
2021/08/14 00:32:34;;;;;;;10.43;7.40;;;;;;;15.61;73.17;100893.84;5033182;28;20057;-64
2021/08/14 00:35:01;;;;;;;9.83;6.33;;;;;;;15.59;73.04;100896.19;5033382;28;20053;-64
2021/08/14 00:37:29;;;;;;;9.55;6.95;;;;;;;15.57;73.38;100886.44;5033048;28;20471;-64
2021/08/14 00:39:56;;;;;;;11.88;6.22;;;;;;;15.56;73.30;100887.59;5033445;28;20380;-64
2021/08/14 00:42:23;;;;;;;10.43;6.47;;;;;;;15.56;73.35;100896.03;5033444;28;20054;-64
2021/08/14 00:44:51;;;;;;;9.50;6.45;;;;;;;15.58;73.41;100899.31;5032885;28;20064;-64
2021/08/14 00:47:24;;;;;;;8.43;5.88;;;;;;;15.58;73.21;100888.94;5033159;28;20075;-64
2021/08/14 00:49:53;;;;;;;10.35;6.85;;;;;;;15.59;73.14;100884.13;5050228;28;20053;-64
2021/08/14 00:52:21;;;;;;;10.80;6.47;;;;;;;15.53;73.20;100885.47;5052888;28;20056;-64
2021/08/14 00:54:49;;;;;;;9.73;6.32;;;;;;;15.48;72.92;100889.31;5035847;28;20053;-64
2021/08/14 00:57:17;;;;;;;11.00;6.60;;;;;;;15.45;73.14;100886.34;5033216;28;20053;-65
2021/08/14 00:59:45;;;;;;;12.77;6.50;;;;;;;15.41;72.94;100886.19;5032679;28;20049;-64
2021/08/14 01:02:14;;;;;;;10.85;6.72;;;;;;;15.40;73.33;100882.56;5033522;28;20054;-64
2021/08/14 01:04:42;;;;;;;9.18;6.38;;;;;;;15.41;73.33;100884.22;5032635;28;20049;-64
2021/08/14 01:07:10;;;;;;;9.18;6.15;;;;;;;15.45;73.31;100883.53;5032855;28;20482;-64
2021/08/14 01:09:38;;;;;;;9.63;6.47;;;;;;;15.41;73.14;100873.00;5048441;28;20048;-64
2021/08/14 01:12:05;;;;;;;10.13;6.07;;;;;;;15.41;73.18;100873.00;5052516;28;20060;-64
2021/08/14 01:14:33;;;;;;;10.15;6.43;;;;;;;15.37;73.32;100871.19;5052274;28;20513;-64
2021/08/14 01:17:01;;;;;;;10.30;6.45;;;;;;;15.35;73.43;100871.53;5052692;28;20053;-64
2021/08/14 01:19:29;;;;;;;10.38;6.43;;;;;;;15.34;73.47;100861.44;5052377;28;20052;-65
2021/08/14 01:21:56;;;;;;;12.20;7.43;;;;;;;15.31;73.83;100853.72;5052354;28;20056;-64
2021/08/14 01:24:25;;;;;;;11.93;6.70;;;;;;;15.29;73.63;100867.28;5035062;28;20049;-64
2021/08/14 01:26:59;;;;;;;13.60;7.32;;;;;;;15.29;74.03;100856.03;5032108;28;20475;-64
2021/08/14 01:29:26;;;;;;;9.68;7.32;;;;;;;15.28;74.02;100862.81;5032521;28;20057;-64
2021/08/14 01:31:53;;;;;;;10.95;6.80;;;;;;;15.25;74.38;100862.66;5032200;28;20057;-64
2021/08/14 01:34:21;;;;;;;9.65;6.10;;;;;;;15.27;74.12;100865.97;5032219;28;20049;-64
2021/08/14 01:36:49;;;;;;;11.45;6.57;;;;;;;15.24;74.38;100870.25;5031890;28;20383;-64
2021/08/14 01:39:16;;;;;;;12.80;6.43;;;;;;;15.22;74.45;100869.75;5044840;28;20049;-64
2021/08/14 01:41:56;;;;;;;10.40;6.28;;;;;;;15.20;74.05;100866.47;5051455;28;20052;-64
2021/08/14 01:44:23;;;;;;;13.82;7.35;;;;;;;15.21;73.86;100863.31;5052302;28;20060;-64
2021/08/14 01:46:51;;;;;;;10.13;6.70;;;;;;;15.22;74.21;100866.94;5051340;28;20049;-64
2021/08/14 01:49:19;;;;;;;9.50;6.20;;;;;;;15.22;74.21;100873.41;5052239;28;20060;-64
2021/08/14 01:51:46;;;;;;;10.70;5.97;;;;;;;15.24;74.12;100867.44;5051921;28;20075;-64
2021/08/14 01:54:14;;;;;;;11.25;6.65;;;;;;;15.20;74.22;100856.09;5052109;28;20053;-64
2021/08/14 01:56:43;;;;;;;9.95;6.70;;;;;;;15.22;74.01;100855.72;5051692;28;20049;-64
2021/08/14 01:59:12;;;;;;;9.52;6.53;;;;;;;15.19;74.00;100850.81;5037019;28;20411;-65
2021/08/14 02:01:40;;;;;;;9.25;6.90;;;;;;;15.15;74.04;100844.22;5032584;28;20057;-64
2021/08/14 02:04:08;;;;;;;11.30;6.60;;;;;;;15.14;73.85;100851.81;5032295;28;20049;-64
2021/08/14 02:06:36;;;;;;;9.00;6.88;;;;;;;15.10;74.04;100850.00;5032492;28;20057;-64
2021/08/14 02:09:03;;;;;;;11.68;6.90;;;;;;;15.05;74.11;100847.38;5032346;28;20050;-64
2021/08/14 02:11:35;;;;;;;9.27;6.05;;;;;;;15.03;74.39;100844.91;5032605;28;20064;-64
2021/08/14 02:14:03;;;;;;;8.70;6.35;;;;;;;15.06;74.30;100844.25;5048981;28;20064;-64
2021/08/14 02:16:33;;;;;;;12.05;7.40;;;;;;;15.04;74.30;100846.56;5052343;28;20474;-64
2021/08/14 02:19:01;;;;;;;9.82;6.80;;;;;;;15.00;74.08;100839.97;5051676;28;20053;-64
2021/08/14 02:21:28;;;;;;;12.57;7.80;;;;;;;14.95;74.38;100842.94;5034259;28;20045;-64
2021/08/14 02:23:56;;;;;;;11.73;7.28;;;;;;;14.86;74.88;100847.78;5037264;28;20049;-64
2021/08/14 02:26:24;;;;;;;15.32;8.50;;;;;;;14.90;74.47;100837.53;5052084;28;20045;-64
2021/08/14 02:28:51;;;;;;;10.68;7.50;;;;;;;14.90;74.77;100843.97;5051936;28;20060;-64
2021/08/14 02:31:19;;;;;;;11.05;7.28;;;;;;;14.90;75.35;100843.97;5053931;28;20470;-64
2021/08/14 02:33:48;;;;;;;10.98;6.60;;;;;;;15.01;74.94;100836.84;5055452;28;20064;-64
2021/08/14 02:36:16;;;;;;;9.82;6.32;;;;;;;15.08;74.04;100835.50;5055761;28;20053;-64
2021/08/14 02:38:43;;;;;;;9.65;6.43;;;;;;;15.15;73.91;100842.22;5052102;28;20072;-64
2021/08/14 02:41:11;;;;;;;11.52;6.65;;;;;;;15.17;73.73;100834.28;5035948;28;20065;-64
2021/08/14 02:43:38;;;;;;;10.90;6.70;;;;;;;15.17;73.44;100839.09;5035573;28;20053;-64
2021/08/14 02:46:06;;;;;;;8.45;6.30;;;;;;;15.17;73.81;100839.09;5035787;28;20475;-64
2021/08/14 02:48:34;;;;;;;11.90;7.50;;;;;;;15.18;73.82;100838.75;5042153;28;20045;-64
2021/08/14 02:51:02;;;;;;;11.18;7.05;;;;;;;15.23;73.52;100841.38;5055595;28;20485;-64
2021/08/14 02:53:30;;;;;;;9.70;6.63;;;;;;;15.20;73.93;100832.78;5046315;28;20068;-64
2021/08/14 02:55:57;;;;;;;13.35;7.20;;;;;;;15.19;74.06;100826.34;5051617;28;20517;-64
2021/08/14 02:58:24;;;;;;;11.13;7.70;;;;;;;15.20;74.06;100822.41;5055587;28;20049;-64
2021/08/14 03:00:52;;;;;;;9.98;6.85;;;;;;;15.17;73.72;100819.44;5055287;28;20060;-64
2021/08/14 03:03:19;;;;;;;11.30;6.70;;;;;;;15.10;73.87;100828.38;5055425;28;20478;-64
2021/08/14 03:05:46;;;;;;;13.30;7.15;;;;;;;15.06;73.92;100829.41;5055168;28;20053;-64
2021/08/14 03:08:15;;;;;;;14.93;7.45;;;;;;;15.05;73.85;100828.56;5055295;28;20045;-64
2021/08/14 03:10:43;;;;;;;9.80;7.00;;;;;;;15.04;74.07;100826.13;5054360;28;20056;-64
2021/08/14 03:13:12;;;;;;;9.75;6.93;;;;;;;15.03;74.24;100825.28;5035004;28;21037;-64
2021/08/14 03:15:40;;;;;;;9.90;7.10;;;;;;;15.00;74.00;100823.97;5034935;28;20053;-64
2021/08/14 03:18:07;;;;;;;12.70;7.82;;;;;;;14.98;74.20;100825.47;5035011;28;20053;-64
2021/08/14 03:20:35;;;;;;;10.52;7.53;;;;;;;14.98;74.48;100822.66;5034850;28;20060;-64
2021/08/14 03:23:03;;;;;;;11.48;8.20;;;;;;;14.97;74.59;100816.25;5034820;28;20115;-65
2021/08/14 03:25:31;;;;;;;14.60;9.15;;;;;;;14.97;74.85;100819.03;5036227;28;20049;-65
2021/08/14 03:27:59;;;;;;;15.17;9.50;;;;;;;14.94;74.88;100825.31;5034780;28;20057;-65
2021/08/14 03:30:26;;;;;;;13.85;8.98;;;;;;;14.95;74.66;100826.97;5034409;28;20053;-65
2021/08/14 03:32:54;;;;;;;11.85;8.35;;;;;;;14.96;74.57;100820.19;5034436;28;20053;-65
2021/08/14 03:35:21;;;;;;;12.35;7.93;;;;;;;14.95;74.32;100821.34;5034560;28;20446;-65
2021/08/14 03:37:49;;;;;;;14.20;7.75;;;;;;;14.89;74.11;100822.69;5034213;28;20159;-64
2021/08/14 03:40:16;;;;;;;11.00;7.75;;;;;;;14.86;74.39;100817.75;5034620;28;20049;-64
2021/08/14 03:42:45;;;;;;;12.40;8.32;;;;;;;14.82;74.59;100816.75;5034056;28;20050;-64
2021/08/14 03:45:13;;;;;;;11.80;8.40;;;;;;;14.84;74.66;100820.06;5035199;28;20053;-64
2021/08/14 03:47:40;;;;;;;12.02;8.20;;;;;;;14.84;74.99;100820.06;5034501;28;20049;-65
2021/08/14 03:50:08;;;;;;;12.85;8.13;;;;;;;14.84;75.08;100817.25;5053738;28;20060;-64
2021/08/14 03:52:36;;;;;;;11.85;8.32;;;;;;;14.83;75.37;100812.81;5054029;28;20470;-64
2021/08/14 03:55:03;;;;;;;14.73;8.77;;;;;;;14.87;75.14;100818.59;5053659;28;20060;-64
2021/08/14 03:57:31;;;;;;;13.82;8.32;;;;;;;14.88;74.53;100815.44;5054118;28;20390;-64
2021/08/14 04:00:00;;;;;;;13.18;8.52;;;;;;;14.85;74.42;100809.69;5041318;28;20053;-64
2021/08/14 04:02:27;;;;;;;14.10;9.05;;;;;;;14.80;74.45;100813.47;5034134;28;20053;-64
2021/08/14 04:04:54;;;;;;;14.52;8.90;;;;;;;14.78;74.32;100816.63;5033454;28;20060;-65
2021/08/14 04:07:22;;;;;;;11.30;8.45;;;;;;;14.76;74.23;100818.94;5033901;28;20053;-65
2021/08/14 04:09:49;;;;;;;12.63;9.05;;;;;;;14.75;74.28;100820.09;5033900;28;20483;-65
2021/08/14 04:12:16;;;;;;;15.13;9.52;;;;;;;14.72;74.36;100819.91;5034061;28;20057;-65
2021/08/14 04:14:44;;;;;;;12.63;8.40;;;;;;;14.71;74.40;100821.09;5034782;28;20060;-64
2021/08/14 04:17:12;;;;;;;13.35;8.55;;;;;;;14.73;74.77;100819.59;5034293;28;20060;-64
2021/08/14 04:19:40;;;;;;;11.93;8.23;;;;;;;14.73;74.81;100821.59;5034115;28;20057;-64
2021/08/14 04:22:07;;;;;;;15.30;9.63;;;;;;;14.70;74.68;100813.81;5033451;28;20058;-64
2021/08/14 04:24:34;;;;;;;13.20;9.23;;;;;;;14.73;74.67;100818.78;5034166;28;20056;-64
2021/08/14 04:27:02;;;;;;;12.77;9.27;;;;;;;14.73;74.80;100819.59;5033346;28;20053;-64
2021/08/14 04:29:29;;;;;;;14.90;9.23;;;;;;;14.75;74.72;100820.09;5033577;28;20487;-64
2021/08/14 04:31:56;;;;;;;14.57;8.93;;;;;;;14.71;74.80;100823.91;5033334;28;20053;-64
2021/08/14 04:34:25;;;;;;;13.85;8.60;;;;;;;14.71;74.74;100823.91;5033462;28;20053;-65
2021/08/14 04:36:53;;;;;;;16.43;8.60;;;;;;;14.74;74.31;100823.22;5033214;28;20053;-64
2021/08/14 04:39:20;;;;;;;13.02;9.43;;;;;;;14.74;73.98;100821.25;5034007;28;20057;-64
2021/08/14 04:41:48;;;;;;;11.95;8.57;;;;;;;14.73;74.25;100819.59;5032891;28;20045;-64
2021/08/14 04:44:15;;;;;;;12.48;8.75;;;;;;;14.74;74.12;100826.88;5033147;28;20049;-64
2021/08/14 04:46:42;;;;;;;12.93;8.68;;;;;;;14.75;74.31;100828.50;5033332;28;20406;-64
2021/08/14 04:49:09;;;;;;;21.05;8.88;;;;;;;14.78;74.53;100833.47;5044938;28;20049;-64
2021/08/14 04:51:38;;;;;;;12.60;8.25;;;;;;;14.82;74.25;100822.38;5052945;28;20060;-64
2021/08/14 04:54:06;;;;;;;12.65;8.35;;;;;;;14.83;74.57;100829.63;5050794;28;20063;-64
2021/08/14 04:56:33;;;;;;;13.23;8.98;;;;;;;14.84;74.30;100828.47;5053061;28;20053;-65
2021/08/14 04:59:00;;;;;;;12.27;8.20;;;;;;;14.89;74.10;100827.47;5052766;28;20482;-64
2021/08/14 05:01:28;;;;;;;12.40;8.20;;;;;;;14.91;74.03;100820.38;5052743;28;20052;-64
2021/08/14 05:03:55;;;;;;;13.30;7.88;;;;;;;14.95;73.93;100820.50;5052363;28;20052;-64
2021/08/14 05:06:23;;;;;;;11.18;7.55;;;;;;;14.97;74.16;100826.59;5052735;28;20064;-64
2021/08/14 05:08:51;;;;;;;10.70;7.53;;;;;;;15.05;73.53;100825.75;5041344;28;20053;-64
2021/08/14 05:11:19;;;;;;;10.32;7.07;;;;;;;15.06;73.27;100824.63;5032973;28;20049;-64
2021/08/14 05:13:46;;;;;;;13.45;8.00;;;;;;;15.07;73.35;100819.81;5032603;28;20054;-64
2021/08/14 05:16:13;;;;;;;10.18;7.28;;;;;;;15.11;73.28;100818.81;5032263;28;20053;-65
2021/08/14 05:18:40;;;;;;;11.57;7.05;;;;;;;15.16;73.21;100827.06;5032729;28;20050;-64
2021/08/14 05:21:08;;;;;;;10.00;7.20;;;;;;;15.24;73.21;100822.53;5032761;28;20049;-65
2021/08/14 05:23:35;;;;;;;11.40;7.15;;;;;;;15.26;73.40;100820.22;5039378;28;20049;-65
2021/08/14 05:26:04;;;;;;;7.82;6.63;;;;;;;15.39;72.94;100826.75;5032213;28;20068;-65
2021/08/14 05:28:32;;;;;;;9.00;6.55;;;;;;;15.45;73.19;100821.78;5032406;28;20060;-65
2021/08/14 05:31:00;;;;;;;12.73;7.03;;;;;;;15.51;72.81;100826.03;5032748;28;20379;-65
2021/08/14 05:33:28;;;;;;;11.13;7.88;;;;;;;15.54;72.81;100825.34;5032944;28;20610;-65
2021/08/14 05:35:55;;;;;;;12.00;7.80;;;;;;;15.58;72.61;100821.53;5032359;28;20049;-65
2021/08/14 05:38:22;;;;;;;10.20;6.88;;;;;;;15.68;72.24;100825.91;5033173;28;20045;-65
2021/08/14 05:40:50;;;;;;;11.18;7.32;;;;;;;15.81;72.15;100819.28;5032556;28;20049;-65
2021/08/14 05:43:18;;;;;;;9.32;6.68;;;;;;;15.91;72.12;100822.81;5032259;28;20413;-65
2021/08/14 05:45:46;;;;;;;14.32;8.07;;;;;;;16.03;71.92;100817.28;5032496;28;20362;-65
2021/08/14 05:48:13;;;;;;;12.73;8.10;;;;;;;16.11;71.98;100822.00;5036454;28;20056;-65
2021/08/14 05:50:41;;;;;;;11.45;8.02;;;;;;;16.18;72.07;100821.44;5052205;28;20490;-65
2021/08/14 05:53:08;;;;;;;10.93;8.25;;;;;;;16.28;72.11;100820.22;5050578;28;20041;-65
2021/08/14 05:55:36;;;;;;;15.70;8.55;;;;;;;16.38;71.86;100825.41;5034286;28;20518;-65
2021/08/14 05:58:03;;;;;;;13.05;9.95;;;;;;;16.52;71.34;100825.09;5032466;28;20050;-65
2021/08/14 06:00:32;;;;;;;12.48;8.25;;;;;;;16.62;71.02;100825.47;5032280;28;20050;-65
2021/08/14 06:03:00;;;;;;;12.88;9.55;;;;;;;16.73;71.06;100833.47;5032113;28;20065;-65
2021/08/14 06:05:27;;;;;;;12.95;8.60;;;;;;;16.83;70.79;100835.88;5036661;28;20045;-65
2021/08/14 06:07:54;;;;;;;12.93;9.23;;;;;;;16.88;70.13;100827.22;5055511;28;20049;-65
2021/08/14 06:10:22;;;;;;;13.25;8.68;;;;;;;16.91;70.28;100837.78;5037500;28;20057;-65
2021/08/14 06:12:49;;;;;;;16.17;9.98;;;;;;;17.04;70.31;100830.19;5036080;28;20053;-65
2021/08/14 06:15:16;;;;;;;14.65;8.88;;;;;;;17.16;69.73;100821.75;5035272;28;20053;-66
2021/08/14 06:17:45;;;;;;;13.63;8.80;;;;;;;17.28;69.20;100822.94;5036053;28;20056;-65
2021/08/14 06:20:13;;;;;;;10.93;8.23;;;;;;;17.36;68.88;100819.19;5035615;28;20073;-65
2021/08/14 06:22:40;;;;;;;13.50;9.05;;;;;;;17.45;69.10;100815.06;5035493;28;20485;-65
2021/08/14 06:25:09;;;;;;;14.00;8.57;;;;;;;17.59;69.02;100817.50;5052331;28;20049;-65
2021/08/14 06:27:37;;;;;;;15.33;8.67;;;;;;;17.71;68.79;100811.06;5055399;28;20057;-65
2021/08/14 06:30:06;;;;;;;14.05;8.60;;;;;;;17.83;69.00;100813.88;5054583;28;20479;-65
2021/08/14 06:32:34;;;;;;;13.27;8.75;;;;;;;17.97;68.70;100812.66;5054145;28;20063;-65
2021/08/14 06:35:03;;;;;;;13.35;7.97;;;;;;;18.10;68.41;100808.66;5051965;28;20061;-65
2021/08/14 06:37:30;;;;;;;10.43;8.13;;;;;;;18.24;68.25;100809.03;5049718;28;20053;-65
2021/08/14 06:39:59;;;;;;;13.02;9.05;;;;;;;18.41;67.95;100812.75;5035397;28;20053;-65
2021/08/14 06:42:27;;;;;;;11.15;8.52;;;;;;;18.52;68.15;100813.03;5046208;28;20045;-65
2021/08/14 06:44:54;;;;;;;13.18;8.27;;;;;;;18.67;67.46;100810.25;5055274;28;20497;-65
2021/08/14 06:47:21;;;;;;;11.05;8.10;;;;;;;18.78;67.11;100819.03;5055472;28;20057;-65
2021/08/14 06:49:49;;;;;;;12.20;8.10;;;;;;;18.93;66.42;100819.44;5040387;28;20052;-65
2021/08/14 06:52:18;;;;;;;12.55;7.32;;;;;;;19.04;66.23;100814.88;5035423;28;20041;-65
2021/08/14 06:54:45;;;;;;;13.85;8.32;;;;;;;19.15;66.34;100812.31;5047092;28;20064;-65
2021/08/14 06:57:13;;;;;;;9.07;7.15;;;;;;;19.28;65.92;100816.72;5054630;28;20060;-65
2021/08/14 06:59:40;;;;;;;12.82;8.43;;;;;;;19.41;66.31;100817.41;5055065;28;20063;-65
2021/08/14 07:02:08;;;;;;;14.40;7.93;;;;;;;19.52;64.78;100815.66;5039824;28;20053;-65
2021/08/14 07:04:37;;;;;;;11.73;8.50;;;;;;;19.64;64.66;100823.22;5054714;28;20064;-65
2021/08/14 07:07:05;;;;;;;11.17;7.63;;;;;;;19.78;63.60;100826.41;5054386;28;20363;-65
2021/08/14 07:09:37;;;;;;;11.30;7.43;;;;;;;19.91;63.14;100826.25;5053674;28;20518;-65
2021/08/14 07:12:05;;;;;;;10.70;7.85;;;;;;;20.02;63.64;100833.81;5050542;28;20057;-65
2021/08/14 07:14:32;;;;;;;13.90;8.13;;;;;;;20.09;62.91;100819.00;5043240;28;20049;-65
2021/08/14 07:17:00;;;;;;;10.50;7.43;;;;;;;20.23;62.59;100816.47;5055301;28;20052;-65
2021/08/14 07:19:28;;;;;;;11.77;8.40;;;;;;;20.49;62.24;100820.63;5055184;28;20048;-65
2021/08/14 07:21:55;;;;;;;12.00;7.75;;;;;;;21.12;60.83;100812.91;5054899;28;20057;-65
2021/08/14 07:24:23;;;;;;;11.68;7.20;;;;;;;21.74;57.28;100812.75;5045252;28;20124;-65
2021/08/14 07:26:52;;;;;;;10.15;6.63;;;;;;;22.60;54.96;100797.66;5035021;28;20053;-65
2021/08/14 07:29:19;;;;;;;9.13;5.90;;;;;;;23.26;52.07;100795.03;5034739;28;20049;-65
2021/08/14 07:31:46;;;;;;;9.45;6.50;;;;;;;24.11;49.75;100787.50;5054119;28;20045;-65
2021/08/14 07:34:14;;;;;;;14.02;6.45;;;;;;;24.84;48.27;100783.63;5054475;28;20057;-65
2021/08/14 07:36:41;;;;;;;8.82;5.50;;;;;;;25.56;45.48;100789.38;5054474;28;20403;-65
2021/08/14 07:39:08;;;;;;;11.30;5.97;;;;;;;25.81;44.35;100783.63;5046638;28;20506;-66
2021/08/14 07:41:35;;;;;;;10.32;5.50;;;;;;;26.66;42.71;100773.91;5034312;28;20057;-64
2021/08/14 07:44:04;;;;;;;7.78;5.00;;;;;;;27.41;39.96;100768.84;5034363;28;20490;-63
2021/08/14 07:46:32;;;;;;;8.75;4.65;;;;;;;27.81;37.99;100770.06;5034737;28;20053;-63
2021/08/14 07:48:59;;;;;;;12.15;6.10;;;;;;;28.53;38.61;100766.31;5054053;28;20363;-65
2021/08/14 07:51:27;;;;;;;7.00;4.40;;;;;;;29.06;34.79;100767.56;5054518;28;20057;-64
2021/08/14 07:53:55;;;;;;;10.88;5.55;;;;;;;29.88;34.41;100771.03;5053168;28;20052;-63
2021/08/14 07:56:23;;;;;;;10.13;5.10;;;;;;;29.90;33.10;100774.28;5053818;28;20060;-64
2021/08/14 07:58:50;;;;;;;7.97;4.32;;;;;;;30.76;31.33;100765.84;5054015;28;20060;-65
2021/08/14 08:01:19;;;;;;;8.25;4.20;;;;;;;31.69;31.26;100766.41;5053486;28;20049;-63
2021/08/14 08:03:46;;;;;;;6.97;4.05;;;;;;;32.57;29.30;100751.94;5054436;28;20052;-66
2021/08/14 08:06:13;;;;;;;7.20;4.40;;;;;;;33.02;28.59;100758.72;5053895;28;20057;-66
2021/08/14 08:08:40;;;;;;;10.18;4.78;;;;;;;33.69;28.56;100757.66;5046246;28;20049;-64
2021/08/14 08:11:08;;;;;;;9.68;4.50;;;;;;;34.37;27.31;100766.66;5033858;28;20046;-64
2021/08/14 08:13:35;;;;;;;9.02;5.05;;;;;;;35.13;25.27;100762.34;5034543;28;20053;-65
2021/08/14 08:16:02;;;;;;;9.20;4.78;;;;;;;35.09;24.48;100753.00;5037780;28;20052;-66
2021/08/14 08:18:31;;;;;;;10.43;5.38;;;;;;;35.07;24.25;100746.91;5034166;28;20053;-64
2021/08/14 08:20:59;;;;;;;6.53;4.38;;;;;;;35.50;24.83;100750.84;5042365;28;20064;-64
2021/08/14 08:23:26;;;;;;;7.55;4.80;;;;;;;36.27;23.66;100741.16;5053519;28;20053;-65
2021/08/14 08:25:53;;;;;;;8.85;4.28;;;;;;;36.53;23.40;100744.44;5054206;28;20056;-65
2021/08/14 08:28:21;;;;;;;7.25;4.38;;;;;;;36.46;23.77;100744.81;5040354;28;20061;-65
2021/08/14 08:30:49;;;;;;;9.10;4.28;;;;;;;37.04;22.48;100754.38;5033900;28;20056;-66
2021/08/14 08:33:16;;;;;;;7.95;4.07;;;;;;;37.81;22.70;100752.91;5047860;28;20056;-65
2021/08/14 08:35:45;;;;;;;7.47;3.90;;;;;;;38.01;22.90;100754.31;5053891;28;20049;-65
2021/08/14 08:38:12;;;;;;;8.75;4.07;;;;;;;38.60;21.72;100756.47;5052987;28;20056;-65
2021/08/14 08:40:42;;;;;;;10.43;3.92;;;;;;;39.22;20.22;100752.41;5054104;28;20505;-65
2021/08/14 08:43:10;;;;;;;6.18;3.70;;;;;;;39.73;19.79;100744.31;5053563;28;20057;-65
2021/08/14 08:45:37;;;;;;;8.95;4.85;;;;;;;40.80;19.00;100750.44;5053506;28;20474;-65
2021/08/14 08:48:05;;;;;;;6.13;4.30;;;;;;;40.82;18.35;100750.69;5045074;28;20481;-65
2021/08/14 08:50:33;;;;;;;7.55;3.83;;;;;;;41.34;17.72;100742.53;5052856;28;20060;-65
2021/08/14 08:53:04;;;;;;;8.23;4.20;;;;;;;42.27;17.20;100749.72;5051611;28;20053;-65
2021/08/14 08:55:34;;;;;;;7.57;4.15;;;;;;;42.97;16.70;100752.94;5052082;28;20053;-65
2021/08/14 08:58:01;;;;;;;7.00;4.10;;;;;;;43.85;16.07;100740.59;5053093;28;20053;-65
2021/08/14 09:00:29;;;;;;;7.22;4.55;;;;;;;44.33;14.67;100747.22;5042004;28;20065;-65
2021/08/14 09:03:11;;;;;;;8.05;3.92;;;;;;;44.32;15.29;100746.41;5033161;28;20053;-65
2021/08/14 09:05:50;;;;;;;6.43;4.13;;;;;;;45.24;14.07;100747.97;5038000;28;20052;-65
2021/08/14 09:08:20;;;;;;;8.35;4.07;;;;;;;45.11;14.72;100744.88;5052096;28;20048;-65
2021/08/14 09:10:48;;;;;;;7.80;4.28;;;;;;;45.95;13.52;100740.88;5052524;28;20049;-65
2021/08/14 09:13:16;;;;;;;;;;;;;;;45.97;13.93;100726.38;5053358;28;20060;-64
2021/08/14 09:15:44;;;;;;;10.88;4.22;;;;;;;45.79;13.51;100738.97;5045987;28;19951;-64
2021/08/14 09:18:13;;;;;;;8.00;3.92;;;;;;;45.62;13.97;100730.38;5043801;28;20049;-64
2021/08/14 09:20:49;;;;;;;6.00;4.38;;;;;;;45.81;13.45;100736.28;5037071;28;20056;-65
2021/08/14 09:23:17;;;;;;;7.20;3.83;;;;;;;44.21;13.28;100737.72;5034085;28;20057;-64
2021/08/14 09:25:47;;;;;;;5.40;3.55;;;;;;;44.83;12.86;100736.34;5032865;28;20057;-64
2021/08/14 09:31:15;;;;;;;6.35;3.92;;;;;;;45.15;13.86;100728.53;5051358;28;20051;-64
2021/08/14 09:33:43;;;;;;;6.95;4.00;;;;;;;45.88;13.83;100723.84;5046079;28;20053;-64
2021/08/14 09:36:11;;;;;;;7.47;4.03;;;;;;;45.57;12.77;100728.28;5032033;28;20050;-64
2021/08/14 09:38:41;;;;;;;7.60;4.22;;;;;;;46.31;12.67;100728.81;5042344;28;20056;-64
2021/08/14 09:41:11;;;;;;;6.68;3.85;;;;;;;45.54;12.09;100711.75;5055141;28;20052;-64
2021/08/14 09:43:39;;;;;;;6.65;3.28;;;;;;;45.15;12.13;100715.97;5056169;28;20490;-64
2021/08/14 09:46:06;;;;;;;6.18;3.28;;;;;;;43.43;13.65;100715.47;5056060;28;20048;-64
2021/08/14 09:48:34;;;;;;;5.43;3.28;;;;;;;44.81;14.01;100718.47;5051860;28;20049;-64
2021/08/14 09:51:01;;;;;;;4.75;3.33;;;;;;;45.75;12.73;100715.75;5036878;28;20049;-64
2021/08/14 09:53:29;;;;;;;6.60;3.47;;;;;;;46.54;11.55;100713.72;5036521;28;20061;-64
2021/08/14 09:56:08;;;;;;;5.78;3.00;;;;;;;45.70;11.60;100715.84;5038077;28;20057;-64
2021/08/14 09:58:39;;;;;;;6.22;3.47;;;;;;;46.53;11.98;100707.00;5038325;28;20052;-64
2021/08/14 10:01:08;;;;;;;6.43;3.70;;;;;;;46.66;11.83;100703.28;5056236;28;20493;-64
2021/08/14 10:03:36;;;;;;;4.70;3.20;;;;;;;46.53;11.71;100709.16;5056143;28;20431;-64
2021/08/14 10:06:03;;;;;;;4.85;3.20;;;;;;;46.00;11.44;100714.84;5056069;28;20144;-64
2021/08/14 10:08:31;;;;;;;;;;;;;;;45.64;11.39;100706.28;5054887;28;20425;-64
2021/08/14 10:10:59;;;;;;;5.82;3.42;;;;;;;44.77;11.35;100712.91;5037812;28;20298;-64
2021/08/14 10:13:26;;;;;;;5.22;3.50;;;;;;;45.04;12.02;100695.53;5036036;28;20491;-64
2021/08/14 10:15:56;;;;;;;4.07;2.60;;;;;;;45.61;11.48;100704.41;5035804;28;20065;-64
2021/08/14 10:18:23;;;;;;;6.50;3.00;;;;;;;45.21;11.70;100701.19;5036131;28;20398;-64
2021/08/14 10:20:50;;;;;;;4.57;2.92;;;;;;;45.13;12.12;100695.94;5039592;28;20045;-64
2021/08/14 10:23:22;;;;;;;5.07;3.35;;;;;;;46.11;11.38;100699.97;5036600;28;20470;-63
2021/08/14 10:25:59;;;;;;;6.43;3.17;;;;;;;46.12;10.49;100698.63;5036086;28;20406;-63
2021/08/14 10:28:43;;;;;;;7.07;3.10;;;;;;;46.06;10.55;100686.91;5036271;28;20061;-63
2021/08/14 10:31:45;;;;;;;5.75;3.22;;;;;;;45.80;10.74;100692.66;5038857;28;20052;-63
2021/08/14 10:34:34;;;;;;;5.68;3.45;;;;;;;46.27;10.69;100690.03;5037774;28;20056;-64
2021/08/14 10:37:23;;;;;;;5.05;3.10;;;;;;;46.48;10.33;100686.50;5049096;28;20061;-64
2021/08/14 10:39:56;;;;;;;5.72;3.13;;;;;;;45.72;10.15;100680.75;5054807;28;20063;-64
2021/08/14 10:42:54;;;;;;;4.47;2.95;;;;;;;46.27;9.62;100678.25;5055327;28;20041;-64
2021/08/14 10:45:23;;;;;;;10.68;3.35;;;;;;;46.72;9.90;100677.44;5055493;28;20485;-64
2021/08/14 10:47:53;;;;;;;6.35;2.90;;;;;;;45.61;10.41;100680.88;5050884;28;20053;-64
2021/08/14 10:50:57;;;;;;;6.80;3.03;;;;;;;46.84;9.76;100686.09;5044567;28;20048;-64
2021/08/14 10:53:24;;;;;;;5.22;2.80;;;;;;;47.51;9.36;100675.03;5049849;28;20393;-64
2021/08/14 10:55:53;;;;;;;;;;;;;;;47.17;9.86;100676.56;5036507;28;20513;-64
2021/08/14 10:58:23;;;;;;;5.68;2.78;;;;;;;47.26;8.82;100680.41;5040856;28;19928;-64
2021/08/14 11:00:52;;;;;;;8.27;3.60;;;;;;;47.08;9.19;100676.19;5035158;28;20128;-64
2021/08/14 11:03:30;;;;;;;8.48;3.20;;;;;;;47.18;8.73;100674.41;5035445;28;20072;-64
2021/08/14 11:06:24;;;;;;;4.57;3.05;;;;;;;48.01;8.54;100672.25;5036742;28;20415;-64
2021/08/14 11:09:32;;;;;;;6.15;3.35;;;;;;;47.57;8.71;100672.75;5035722;28;20053;-64
2021/08/14 11:12:00;;;;;;;4.97;3.28;;;;;;;47.67;9.63;100676.81;5035667;28;20072;-64
2021/08/14 11:14:42;;;;;;;4.97;2.88;;;;;;;48.48;8.64;100671.31;5035005;28;20053;-64
2021/08/14 11:17:11;;;;;;;4.80;2.97;;;;;;;48.59;8.46;100665.06;5035486;28;20058;-64
2021/08/14 11:19:51;;;;;;;5.50;3.05;;;;;;;49.09;8.69;100668.78;5034905;28;20406;-64
2021/08/14 11:22:28;;;;;;;4.65;3.20;;;;;;;48.57;7.88;100662.69;5034463;28;20076;-64
2021/08/14 11:24:56;;;;;;;;;;;;;;;47.34;8.57;100657.69;5036377;28;20057;-64
2021/08/14 11:27:26;;;;;;;5.15;2.95;;;;;;;47.87;9.28;100657.53;5034944;28;19921;-64
2021/08/14 11:30:01;;;;;;;4.45;2.95;;;;;;;48.11;8.64;100659.38;5035148;28;20049;-64
2021/08/14 11:32:30;;;;;;;5.13;2.92;;;;;;;48.11;8.61;100658.56;5042155;28;20410;-63